sensor_id;sensor_type;location;lat;lon;timestamp;temperature;humidity
4701;DHT22;8724;51.272;6.554;2023-09-07T00:00:22;24.50;99.90
4701;DHT22;8724;51.272;6.554;2023-09-07T00:02:50;24.40;99.90
4701;DHT22;8724;51.272;6.554;2023-09-07T00:05:19;24.40;99.90
4701;DHT22;8724;51.272;6.554;2023-09-07T00:07:47;24.40;99.90
4701;DHT22;8724;51.272;6.554;2023-09-07T00:10:15;24.30;99.90
4701;DHT22;8724;51.272;6.554;2023-09-07T00:12:46;24.30;99.90
4701;DHT22;8724;51.272;6.554;2023-09-07T00:15:14;24.30;99.90
4701;DHT22;8724;51.272;6.554;2023-09-07T00:17:42;24.30;99.90
4701;DHT22;8724;51.272;6.554;2023-09-07T00:20:11;24.20;99.90
4701;DHT22;8724;51.272;6.554;2023-09-07T00:22:41;24.30;99.90
4701;DHT22;8724;51.272;6.554;2023-09-07T00:25:09;24.20;99.90
4701;DHT22;8724;51.272;6.554;2023-09-07T00:27:37;24.20;99.90
4701;DHT22;8724;51.272;6.554;2023-09-07T00:30:07;24.20;99.90
4701;DHT22;8724;51.272;6.554;2023-09-07T00:32:36;24.20;99.90
4701;DHT22;8724;51.272;6.554;2023-09-07T00:35:05;24.10;99.90
4701;DHT22;8724;51.272;6.554;2023-09-07T00:37:33;24.10;99.90
4701;DHT22;8724;51.272;6.554;2023-09-07T00:40:02;24.10;99.90
4701;DHT22;8724;51.272;6.554;2023-09-07T00:42:30;24.10;99.90
4701;DHT22;8724;51.272;6.554;2023-09-07T00:44:59;24.10;99.90
4701;DHT22;8724;51.272;6.554;2023-09-07T00:47:29;24.00;99.90
4701;DHT22;8724;51.272;6.554;2023-09-07T00:49:58;24.00;99.90
4701;DHT22;8724;51.272;6.554;2023-09-07T00:52:27;24.00;99.90
4701;DHT22;8724;51.272;6.554;2023-09-07T00:54:56;23.90;99.90
4701;DHT22;8724;51.272;6.554;2023-09-07T00:57:24;23.90;99.90
4701;DHT22;8724;51.272;6.554;2023-09-07T00:59:53;24.20;99.90
4701;DHT22;8724;51.272;6.554;2023-09-07T01:02:22;23.90;99.90
4701;DHT22;8724;51.272;6.554;2023-09-07T01:04:52;23.80;99.90
4701;DHT22;8724;51.272;6.554;2023-09-07T01:07:23;23.90;99.90
4701;DHT22;8724;51.272;6.554;2023-09-07T01:09:56;23.80;99.90
4701;DHT22;8724;51.272;6.554;2023-09-07T01:12:24;23.90;99.90
4701;DHT22;8724;51.272;6.554;2023-09-07T01:14:53;23.80;99.90
4701;DHT22;8724;51.272;6.554;2023-09-07T01:17:22;23.80;99.90
4701;DHT22;8724;51.272;6.554;2023-09-07T01:19:52;23.80;99.90
4701;DHT22;8724;51.272;6.554;2023-09-07T01:22:22;23.80;99.90
4701;DHT22;8724;51.272;6.554;2023-09-07T01:24:51;23.80;99.90
4701;DHT22;8724;51.272;6.554;2023-09-07T01:27:20;23.70;99.90
4701;DHT22;8724;51.272;6.554;2023-09-07T01:29:48;23.70;99.90
4701;DHT22;8724;51.272;6.554;2023-09-07T01:32:17;23.70;99.90
4701;DHT22;8724;51.272;6.554;2023-09-07T01:34:45;23.70;99.90
4701;DHT22;8724;51.272;6.554;2023-09-07T01:37:14;23.70;99.90
4701;DHT22;8724;51.272;6.554;2023-09-07T01:39:43;23.70;99.90
4701;DHT22;8724;51.272;6.554;2023-09-07T01:42:12;23.70;99.90
4701;DHT22;8724;51.272;6.554;2023-09-07T01:44:40;23.70;99.90
4701;DHT22;8724;51.272;6.554;2023-09-07T01:47:08;23.70;99.90
4701;DHT22;8724;51.272;6.554;2023-09-07T01:49:37;23.60;99.90
4701;DHT22;8724;51.272;6.554;2023-09-07T01:52:05;23.60;99.90
4701;DHT22;8724;51.272;6.554;2023-09-07T01:54:33;23.60;99.90
4701;DHT22;8724;51.272;6.554;2023-09-07T01:57:04;23.60;99.90
4701;DHT22;8724;51.272;6.554;2023-09-07T01:59:32;23.50;99.90
4701;DHT22;8724;51.272;6.554;2023-09-07T02:02:00;23.60;99.90
4701;DHT22;8724;51.272;6.554;2023-09-07T02:04:28;23.50;99.90
4701;DHT22;8724;51.272;6.554;2023-09-07T02:06:57;23.50;99.90
4701;DHT22;8724;51.272;6.554;2023-09-07T02:09:25;23.50;99.90
4701;DHT22;8724;51.272;6.554;2023-09-07T02:11:53;23.50;99.90
4701;DHT22;8724;51.272;6.554;2023-09-07T02:14:22;23.50;99.90
4701;DHT22;8724;51.272;6.554;2023-09-07T02:16:50;23.50;99.90
4701;DHT22;8724;51.272;6.554;2023-09-07T02:19:19;23.50;99.90
4701;DHT22;8724;51.272;6.554;2023-09-07T02:21:49;23.40;99.90
4701;DHT22;8724;51.272;6.554;2023-09-07T02:24:18;23.60;99.90
4701;DHT22;8724;51.272;6.554;2023-09-07T02:26:46;23.30;99.90
4701;DHT22;8724;51.272;6.554;2023-09-07T02:29:15;23.30;99.90
4701;DHT22;8724;51.272;6.554;2023-09-07T02:31:44;23.40;99.90
4701;DHT22;8724;51.272;6.554;2023-09-07T02:34:13;23.30;99.90
4701;DHT22;8724;51.272;6.554;2023-09-07T02:36:41;23.30;99.90
4701;DHT22;8724;51.272;6.554;2023-09-07T02:39:09;23.30;99.90
4701;DHT22;8724;51.272;6.554;2023-09-07T02:41:38;23.30;99.90
4701;DHT22;8724;51.272;6.554;2023-09-07T02:44:06;23.30;99.90
4701;DHT22;8724;51.272;6.554;2023-09-07T02:46:34;23.30;99.90
4701;DHT22;8724;51.272;6.554;2023-09-07T02:49:04;23.20;99.90
4701;DHT22;8724;51.272;6.554;2023-09-07T02:51:32;23.20;99.90
4701;DHT22;8724;51.272;6.554;2023-09-07T02:54:01;23.20;99.90
4701;DHT22;8724;51.272;6.554;2023-09-07T02:56:31;23.20;99.90
4701;DHT22;8724;51.272;6.554;2023-09-07T02:58:59;23.20;99.90
4701;DHT22;8724;51.272;6.554;2023-09-07T03:01:28;23.20;99.90
4701;DHT22;8724;51.272;6.554;2023-09-07T03:03:57;23.20;99.90
4701;DHT22;8724;51.272;6.554;2023-09-07T03:06:27;23.20;99.90
4701;DHT22;8724;51.272;6.554;2023-09-07T03:08:55;23.10;99.90
4701;DHT22;8724;51.272;6.554;2023-09-07T03:11:23;23.10;99.90
4701;DHT22;8724;51.272;6.554;2023-09-07T03:13:52;23.10;99.90
4701;DHT22;8724;51.272;6.554;2023-09-07T03:16:20;23.10;99.90
4701;DHT22;8724;51.272;6.554;2023-09-07T03:18:49;23.10;99.90
4701;DHT22;8724;51.272;6.554;2023-09-07T03:21:17;23.10;99.90
4701;DHT22;8724;51.272;6.554;2023-09-07T03:23:47;23.10;99.90
4701;DHT22;8724;51.272;6.554;2023-09-07T03:26:16;23.00;99.90
4701;DHT22;8724;51.272;6.554;2023-09-07T03:28:44;23.00;99.90
4701;DHT22;8724;51.272;6.554;2023-09-07T03:31:12;23.00;99.90
4701;DHT22;8724;51.272;6.554;2023-09-07T03:33:41;23.00;99.90
4701;DHT22;8724;51.272;6.554;2023-09-07T03:36:09;23.00;99.90
4701;DHT22;8724;51.272;6.554;2023-09-07T03:38:41;23.00;99.90
4701;DHT22;8724;51.272;6.554;2023-09-07T03:41:14;23.20;99.90
4701;DHT22;8724;51.272;6.554;2023-09-07T03:43:42;22.90;99.90
4701;DHT22;8724;51.272;6.554;2023-09-07T03:46:10;22.90;99.90
4701;DHT22;8724;51.272;6.554;2023-09-07T03:48:38;22.90;99.90
4701;DHT22;8724;51.272;6.554;2023-09-07T03:51:08;22.80;99.90
4701;DHT22;8724;51.272;6.554;2023-09-07T03:53:36;22.80;99.90
4701;DHT22;8724;51.272;6.554;2023-09-07T03:56:04;22.90;99.90
4701;DHT22;8724;51.272;6.554;2023-09-07T03:58:34;22.80;99.90
4701;DHT22;8724;51.272;6.554;2023-09-07T04:01:03;22.80;99.90
4701;DHT22;8724;51.272;6.554;2023-09-07T04:03:31;22.80;99.90
4701;DHT22;8724;51.272;6.554;2023-09-07T04:05:59;22.80;99.90
4701;DHT22;8724;51.272;6.554;2023-09-07T04:08:28;22.80;99.90
4701;DHT22;8724;51.272;6.554;2023-09-07T04:10:56;22.70;99.90
4701;DHT22;8724;51.272;6.554;2023-09-07T04:13:25;22.70;99.90
4701;DHT22;8724;51.272;6.554;2023-09-07T04:15:54;22.70;99.90
4701;DHT22;8724;51.272;6.554;2023-09-07T04:18:23;22.70;99.90
4701;DHT22;8724;51.272;6.554;2023-09-07T04:20:51;22.60;99.90
4701;DHT22;8724;51.272;6.554;2023-09-07T04:23:20;22.60;99.90
4701;DHT22;8724;51.272;6.554;2023-09-07T04:25:48;22.60;99.90
4701;DHT22;8724;51.272;6.554;2023-09-07T04:28:16;22.60;99.90
4701;DHT22;8724;51.272;6.554;2023-09-07T04:30:44;22.60;99.90
4701;DHT22;8724;51.272;6.554;2023-09-07T04:33:14;22.60;99.90
4701;DHT22;8724;51.272;6.554;2023-09-07T04:35:42;22.60;99.90
4701;DHT22;8724;51.272;6.554;2023-09-07T04:38:10;22.50;99.90
4701;DHT22;8724;51.272;6.554;2023-09-07T04:40:38;22.50;99.90
4701;DHT22;8724;51.272;6.554;2023-09-07T04:43:07;22.50;99.90
4701;DHT22;8724;51.272;6.554;2023-09-07T04:45:35;22.50;99.90
4701;DHT22;8724;51.272;6.554;2023-09-07T04:48:04;22.60;99.90
4701;DHT22;8724;51.272;6.554;2023-09-07T04:50:34;22.50;99.90
4701;DHT22;8724;51.272;6.554;2023-09-07T04:53:03;22.50;99.90
4701;DHT22;8724;51.272;6.554;2023-09-07T04:55:31;22.50;99.90
4701;DHT22;8724;51.272;6.554;2023-09-07T04:57:59;22.40;99.90
4701;DHT22;8724;51.272;6.554;2023-09-07T05:00:27;22.40;99.90
4701;DHT22;8724;51.272;6.554;2023-09-07T05:02:55;22.40;99.90
4701;DHT22;8724;51.272;6.554;2023-09-07T05:05:24;22.40;99.90
4701;DHT22;8724;51.272;6.554;2023-09-07T05:07:53;22.30;99.90
4701;DHT22;8724;51.272;6.554;2023-09-07T05:10:21;22.30;99.90
4701;DHT22;8724;51.272;6.554;2023-09-07T05:12:50;22.30;99.90
4701;DHT22;8724;51.272;6.554;2023-09-07T05:15:18;22.30;99.90
4701;DHT22;8724;51.272;6.554;2023-09-07T05:17:46;22.30;99.90
4701;DHT22;8724;51.272;6.554;2023-09-07T05:20:15;22.30;99.90
4701;DHT22;8724;51.272;6.554;2023-09-07T05:22:43;22.30;99.90
4701;DHT22;8724;51.272;6.554;2023-09-07T05:25:13;22.30;99.90
4701;DHT22;8724;51.272;6.554;2023-09-07T05:27:41;22.20;99.90
4701;DHT22;8724;51.272;6.554;2023-09-07T05:30:11;22.20;99.90
4701;DHT22;8724;51.272;6.554;2023-09-07T05:32:39;22.20;99.90
4701;DHT22;8724;51.272;6.554;2023-09-07T05:35:08;22.20;99.90
4701;DHT22;8724;51.272;6.554;2023-09-07T05:37:39;22.20;99.90
4701;DHT22;8724;51.272;6.554;2023-09-07T05:40:08;22.20;99.90
4701;DHT22;8724;51.272;6.554;2023-09-07T05:42:37;22.20;99.90
4701;DHT22;8724;51.272;6.554;2023-09-07T05:45:07;22.20;99.90
4701;DHT22;8724;51.272;6.554;2023-09-07T05:47:36;22.20;99.90
4701;DHT22;8724;51.272;6.554;2023-09-07T05:50:06;22.20;99.90
4701;DHT22;8724;51.272;6.554;2023-09-07T05:52:35;22.20;99.90
4701;DHT22;8724;51.272;6.554;2023-09-07T05:55:04;22.20;99.90
4701;DHT22;8724;51.272;6.554;2023-09-07T05:57:33;22.20;99.90
4701;DHT22;8724;51.272;6.554;2023-09-07T06:00:03;22.20;99.90
4701;DHT22;8724;51.272;6.554;2023-09-07T06:02:39;22.10;99.90
4701;DHT22;8724;51.272;6.554;2023-09-07T06:05:09;22.20;99.90
4701;DHT22;8724;51.272;6.554;2023-09-07T06:07:38;22.10;99.90
4701;DHT22;8724;51.272;6.554;2023-09-07T06:10:08;22.20;99.90
4701;DHT22;8724;51.272;6.554;2023-09-07T06:12:36;22.10;99.90
4701;DHT22;8724;51.272;6.554;2023-09-07T06:15:07;22.20;99.90
4701;DHT22;8724;51.272;6.554;2023-09-07T06:17:36;22.20;99.90
4701;DHT22;8724;51.272;6.554;2023-09-07T06:20:06;22.20;99.90
4701;DHT22;8724;51.272;6.554;2023-09-07T06:22:34;22.20;99.90
4701;DHT22;8724;51.272;6.554;2023-09-07T06:25:03;22.20;99.90
4701;DHT22;8724;51.272;6.554;2023-09-07T06:27:31;22.20;99.90
4701;DHT22;8724;51.272;6.554;2023-09-07T06:29:59;22.20;99.90
4701;DHT22;8724;51.272;6.554;2023-09-07T06:32:30;22.20;99.90
4701;DHT22;8724;51.272;6.554;2023-09-07T06:34:59;22.20;99.90
4701;DHT22;8724;51.272;6.554;2023-09-07T06:37:28;22.20;99.90
4701;DHT22;8724;51.272;6.554;2023-09-07T06:39:56;22.20;99.90
4701;DHT22;8724;51.272;6.554;2023-09-07T06:42:25;22.20;99.90
4701;DHT22;8724;51.272;6.554;2023-09-07T06:45:02;22.30;99.90
4701;DHT22;8724;51.272;6.554;2023-09-07T06:47:32;22.30;99.90
4701;DHT22;8724;51.272;6.554;2023-09-07T06:50:02;22.30;99.90
4701;DHT22;8724;51.272;6.554;2023-09-07T06:52:30;22.30;99.90
4701;DHT22;8724;51.272;6.554;2023-09-07T06:54:59;22.30;99.90
4701;DHT22;8724;51.272;6.554;2023-09-07T06:57:28;22.40;99.90
4701;DHT22;8724;51.272;6.554;2023-09-07T06:59:57;22.40;99.90
4701;DHT22;8724;51.272;6.554;2023-09-07T07:02:25;22.40;99.90
4701;DHT22;8724;51.272;6.554;2023-09-07T07:04:55;22.50;99.90
4701;DHT22;8724;51.272;6.554;2023-09-07T07:07:23;22.40;99.90
4701;DHT22;8724;51.272;6.554;2023-09-07T07:09:51;22.50;99.90
4701;DHT22;8724;51.272;6.554;2023-09-07T07:12:20;22.50;99.90
4701;DHT22;8724;51.272;6.554;2023-09-07T07:14:49;22.50;99.90
4701;DHT22;8724;51.272;6.554;2023-09-07T07:17:17;22.50;99.90
4701;DHT22;8724;51.272;6.554;2023-09-07T07:19:46;22.60;99.90
4701;DHT22;8724;51.272;6.554;2023-09-07T07:22:15;22.60;99.90
4701;DHT22;8724;51.272;6.554;2023-09-07T07:24:48;22.60;99.90
4701;DHT22;8724;51.272;6.554;2023-09-07T07:27:18;22.60;99.90
4701;DHT22;8724;51.272;6.554;2023-09-07T07:29:46;22.60;99.90
4701;DHT22;8724;51.272;6.554;2023-09-07T07:32:14;22.60;99.90
4701;DHT22;8724;51.272;6.554;2023-09-07T07:34:43;22.70;99.90
4701;DHT22;8724;51.272;6.554;2023-09-07T07:37:11;22.70;99.90
4701;DHT22;8724;51.272;6.554;2023-09-07T07:39:41;22.70;99.90
4701;DHT22;8724;51.272;6.554;2023-09-07T07:42:10;22.70;99.90
4701;DHT22;8724;51.272;6.554;2023-09-07T07:44:39;22.80;99.90
4701;DHT22;8724;51.272;6.554;2023-09-07T07:47:08;22.80;99.90
4701;DHT22;8724;51.272;6.554;2023-09-07T07:49:36;22.80;99.90
4701;DHT22;8724;51.272;6.554;2023-09-07T07:52:05;22.80;99.90
4701;DHT22;8724;51.272;6.554;2023-09-07T07:54:34;22.80;99.90
4701;DHT22;8724;51.272;6.554;2023-09-07T07:57:04;22.80;99.90
4701;DHT22;8724;51.272;6.554;2023-09-07T07:59:34;22.90;99.90
4701;DHT22;8724;51.272;6.554;2023-09-07T08:02:02;22.90;99.90
4701;DHT22;8724;51.272;6.554;2023-09-07T08:04:33;22.90;99.90
4701;DHT22;8724;51.272;6.554;2023-09-07T08:07:03;22.90;99.90
4701;DHT22;8724;51.272;6.554;2023-09-07T08:09:33;23.00;99.90
4701;DHT22;8724;51.272;6.554;2023-09-07T08:12:01;22.90;99.90
4701;DHT22;8724;51.272;6.554;2023-09-07T08:14:33;23.00;99.90
4701;DHT22;8724;51.272;6.554;2023-09-07T08:17:03;23.10;99.90
4701;DHT22;8724;51.272;6.554;2023-09-07T08:19:31;23.00;99.90
4701;DHT22;8724;51.272;6.554;2023-09-07T08:22:01;23.10;99.90
4701;DHT22;8724;51.272;6.554;2023-09-07T08:24:30;23.10;99.90
4701;DHT22;8724;51.272;6.554;2023-09-07T08:26:59;23.10;99.90
4701;DHT22;8724;51.272;6.554;2023-09-07T08:29:29;23.10;99.90
4701;DHT22;8724;51.272;6.554;2023-09-07T08:32:00;23.10;99.90
4701;DHT22;8724;51.272;6.554;2023-09-07T08:34:31;23.30;99.90
4701;DHT22;8724;51.272;6.554;2023-09-07T08:37:01;23.20;99.90
4701;DHT22;8724;51.272;6.554;2023-09-07T08:39:32;23.20;99.90
4701;DHT22;8724;51.272;6.554;2023-09-07T08:42:01;23.20;99.90
4701;DHT22;8724;51.272;6.554;2023-09-07T08:44:33;23.30;99.90
4701;DHT22;8724;51.272;6.554;2023-09-07T08:47:04;23.30;99.90
4701;DHT22;8724;51.272;6.554;2023-09-07T08:49:35;23.30;99.90
4701;DHT22;8724;51.272;6.554;2023-09-07T08:52:04;23.30;99.90
4701;DHT22;8724;51.272;6.554;2023-09-07T08:54:34;23.30;99.90
4701;DHT22;8724;51.272;6.554;2023-09-07T08:57:04;23.40;99.90
4701;DHT22;8724;51.272;6.554;2023-09-07T08:59:33;23.40;99.90
4701;DHT22;8724;51.272;6.554;2023-09-07T09:02:07;23.40;99.90
4701;DHT22;8724;51.272;6.554;2023-09-07T09:04:36;23.40;99.90
4701;DHT22;8724;51.272;6.554;2023-09-07T09:07:05;23.40;99.90
4701;DHT22;8724;51.272;6.554;2023-09-07T09:09:33;23.40;99.90
4701;DHT22;8724;51.272;6.554;2023-09-07T09:12:08;23.40;99.90
4701;DHT22;8724;51.272;6.554;2023-09-07T09:14:37;23.50;99.90
4701;DHT22;8724;51.272;6.554;2023-09-07T09:17:11;23.50;99.90
4701;DHT22;8724;51.272;6.554;2023-09-07T09:19:39;23.50;99.90
4701;DHT22;8724;51.272;6.554;2023-09-07T09:22:08;23.50;99.90
4701;DHT22;8724;51.272;6.554;2023-09-07T09:24:36;23.60;99.90
4701;DHT22;8724;51.272;6.554;2023-09-07T09:27:05;23.60;99.90
4701;DHT22;8724;51.272;6.554;2023-09-07T09:29:33;23.60;99.90
4701;DHT22;8724;51.272;6.554;2023-09-07T09:32:03;23.60;99.90
4701;DHT22;8724;51.272;6.554;2023-09-07T09:34:34;23.60;99.90
4701;DHT22;8724;51.272;6.554;2023-09-07T09:37:04;23.60;99.90
4701;DHT22;8724;51.272;6.554;2023-09-07T09:39:34;23.60;99.90
4701;DHT22;8724;51.272;6.554;2023-09-07T09:42:03;23.70;99.90
4701;DHT22;8724;51.272;6.554;2023-09-07T09:44:32;23.70;99.90
4701;DHT22;8724;51.272;6.554;2023-09-07T09:47:00;23.70;99.90
4701;DHT22;8724;51.272;6.554;2023-09-07T09:49:30;23.70;99.90
4701;DHT22;8724;51.272;6.554;2023-09-07T09:52:00;23.70;99.90
4701;DHT22;8724;51.272;6.554;2023-09-07T09:54:32;23.70;99.90
4701;DHT22;8724;51.272;6.554;2023-09-07T09:57:03;23.70;99.90
4701;DHT22;8724;51.272;6.554;2023-09-07T09:59:32;23.80;99.90
4701;DHT22;8724;51.272;6.554;2023-09-07T10:02:02;23.80;99.90
4701;DHT22;8724;51.272;6.554;2023-09-07T10:04:31;23.80;99.90
4701;DHT22;8724;51.272;6.554;2023-09-07T10:07:02;23.80;99.90
4701;DHT22;8724;51.272;6.554;2023-09-07T10:09:33;23.80;99.90
4701;DHT22;8724;51.272;6.554;2023-09-07T10:12:04;23.80;99.90
4701;DHT22;8724;51.272;6.554;2023-09-07T10:14:38;23.80;99.90
4701;DHT22;8724;51.272;6.554;2023-09-07T10:17:07;23.80;99.90
4701;DHT22;8724;51.272;6.554;2023-09-07T10:19:36;23.90;99.90
4701;DHT22;8724;51.272;6.554;2023-09-07T10:22:06;23.90;99.90
4701;DHT22;8724;51.272;6.554;2023-09-07T10:24:35;23.90;99.90
4701;DHT22;8724;51.272;6.554;2023-09-07T10:27:06;23.90;99.90
4701;DHT22;8724;51.272;6.554;2023-09-07T10:29:41;24.00;99.90
4701;DHT22;8724;51.272;6.554;2023-09-07T10:32:10;24.00;99.90
4701;DHT22;8724;51.272;6.554;2023-09-07T10:34:41;24.00;99.90
4701;DHT22;8724;51.272;6.554;2023-09-07T10:37:12;24.00;99.90
4701;DHT22;8724;51.272;6.554;2023-09-07T10:39:42;24.00;99.90
4701;DHT22;8724;51.272;6.554;2023-09-07T10:42:20;24.10;99.90
4701;DHT22;8724;51.272;6.554;2023-09-07T10:44:49;24.10;99.90
4701;DHT22;8724;51.272;6.554;2023-09-07T10:47:17;24.10;99.90
4701;DHT22;8724;51.272;6.554;2023-09-07T10:49:45;24.10;99.90
4701;DHT22;8724;51.272;6.554;2023-09-07T10:52:15;24.10;99.90
4701;DHT22;8724;51.272;6.554;2023-09-07T10:54:44;24.10;99.90
4701;DHT22;8724;51.272;6.554;2023-09-07T10:57:12;24.20;99.90
4701;DHT22;8724;51.272;6.554;2023-09-07T10:59:44;24.20;99.90
4701;DHT22;8724;51.272;6.554;2023-09-07T11:02:13;24.20;99.90
4701;DHT22;8724;51.272;6.554;2023-09-07T11:04:42;24.20;99.90
4701;DHT22;8724;51.272;6.554;2023-09-07T11:07:11;24.30;99.90
4701;DHT22;8724;51.272;6.554;2023-09-07T11:09:41;24.30;99.90
4701;DHT22;8724;51.272;6.554;2023-09-07T11:12:12;24.30;99.90
4701;DHT22;8724;51.272;6.554;2023-09-07T11:14:40;24.40;99.90
4701;DHT22;8724;51.272;6.554;2023-09-07T11:17:09;24.40;99.90
4701;DHT22;8724;51.272;6.554;2023-09-07T11:19:37;24.60;99.90
4701;DHT22;8724;51.272;6.554;2023-09-07T11:22:05;24.50;99.90
4701;DHT22;8724;51.272;6.554;2023-09-07T11:24:37;24.50;99.90
4701;DHT22;8724;51.272;6.554;2023-09-07T11:27:09;24.50;99.90
4701;DHT22;8724;51.272;6.554;2023-09-07T11:29:37;24.60;99.90
4701;DHT22;8724;51.272;6.554;2023-09-07T11:32:06;24.60;99.90
4701;DHT22;8724;51.272;6.554;2023-09-07T11:34:35;24.60;99.90
4701;DHT22;8724;51.272;6.554;2023-09-07T11:37:03;24.70;99.90
4701;DHT22;8724;51.272;6.554;2023-09-07T11:39:32;24.70;99.90
4701;DHT22;8724;51.272;6.554;2023-09-07T11:42:00;24.80;99.90
4701;DHT22;8724;51.272;6.554;2023-09-07T11:44:30;24.80;99.90
4701;DHT22;8724;51.272;6.554;2023-09-07T11:46:58;24.90;99.90
4701;DHT22;8724;51.272;6.554;2023-09-07T11:49:27;24.90;99.90
4701;DHT22;8724;51.272;6.554;2023-09-07T11:51:55;24.90;99.90
4701;DHT22;8724;51.272;6.554;2023-09-07T11:54:23;24.90;99.90
4701;DHT22;8724;51.272;6.554;2023-09-07T11:56:51;25.00;99.90
4701;DHT22;8724;51.272;6.554;2023-09-07T11:59:20;25.00;99.90
4701;DHT22;8724;51.272;6.554;2023-09-07T12:01:49;25.10;99.90
4701;DHT22;8724;51.272;6.554;2023-09-07T12:04:18;25.10;99.90
4701;DHT22;8724;51.272;6.554;2023-09-07T12:06:46;25.20;99.90
4701;DHT22;8724;51.272;6.554;2023-09-07T12:09:14;25.20;99.90
4701;DHT22;8724;51.272;6.554;2023-09-07T12:11:44;25.20;99.90
4701;DHT22;8724;51.272;6.554;2023-09-07T12:14:12;25.30;99.90
4701;DHT22;8724;51.272;6.554;2023-09-07T12:16:40;25.30;99.90
4701;DHT22;8724;51.272;6.554;2023-09-07T12:19:10;25.40;99.90
4701;DHT22;8724;51.272;6.554;2023-09-07T12:21:38;25.40;99.90
4701;DHT22;8724;51.272;6.554;2023-09-07T12:24:06;25.40;99.90
4701;DHT22;8724;51.272;6.554;2023-09-07T12:26:35;25.40;99.90
4701;DHT22;8724;51.272;6.554;2023-09-07T12:29:04;25.50;99.90
4701;DHT22;8724;51.272;6.554;2023-09-07T12:31:33;25.50;99.90
4701;DHT22;8724;51.272;6.554;2023-09-07T12:34:01;25.60;99.90
4701;DHT22;8724;51.272;6.554;2023-09-07T12:36:31;25.60;99.90
4701;DHT22;8724;51.272;6.554;2023-09-07T12:38:59;25.70;99.90
4701;DHT22;8724;51.272;6.554;2023-09-07T12:41:29;25.70;99.90
4701;DHT22;8724;51.272;6.554;2023-09-07T12:43:58;25.80;99.90
4701;DHT22;8724;51.272;6.554;2023-09-07T12:46:27;25.80;99.90
4701;DHT22;8724;51.272;6.554;2023-09-07T12:48:55;25.80;99.90
4701;DHT22;8724;51.272;6.554;2023-09-07T12:51:23;25.90;99.90
4701;DHT22;8724;51.272;6.554;2023-09-07T12:53:53;25.90;99.90
4701;DHT22;8724;51.272;6.554;2023-09-07T12:56:21;26.00;99.90
4701;DHT22;8724;51.272;6.554;2023-09-07T12:58:50;26.00;99.90
4701;DHT22;8724;51.272;6.554;2023-09-07T13:01:19;26.10;99.90
4701;DHT22;8724;51.272;6.554;2023-09-07T13:03:47;26.10;99.90
4701;DHT22;8724;51.272;6.554;2023-09-07T13:06:16;26.10;99.90
4701;DHT22;8724;51.272;6.554;2023-09-07T13:08:44;26.10;99.90
4701;DHT22;8724;51.272;6.554;2023-09-07T13:11:14;26.20;99.90
4701;DHT22;8724;51.272;6.554;2023-09-07T13:13:42;26.20;99.90
4701;DHT22;8724;51.272;6.554;2023-09-07T13:16:10;26.30;99.90
4701;DHT22;8724;51.272;6.554;2023-09-07T13:18:39;26.30;99.90
4701;DHT22;8724;51.272;6.554;2023-09-07T13:21:07;26.40;99.90
4701;DHT22;8724;51.272;6.554;2023-09-07T13:23:35;26.40;99.90
4701;DHT22;8724;51.272;6.554;2023-09-07T13:26:03;26.50;99.90
4701;DHT22;8724;51.272;6.554;2023-09-07T13:28:33;26.50;99.90
4701;DHT22;8724;51.272;6.554;2023-09-07T13:31:01;26.50;99.90
4701;DHT22;8724;51.272;6.554;2023-09-07T13:33:29;26.60;99.90
4701;DHT22;8724;51.272;6.554;2023-09-07T13:35:58;26.60;99.90
4701;DHT22;8724;51.272;6.554;2023-09-07T13:38:27;26.70;99.90
4701;DHT22;8724;51.272;6.554;2023-09-07T13:40:55;26.70;99.90
4701;DHT22;8724;51.272;6.554;2023-09-07T13:43:25;26.80;99.90
4701;DHT22;8724;51.272;6.554;2023-09-07T13:45:54;26.80;99.90
4701;DHT22;8724;51.272;6.554;2023-09-07T13:48:23;26.90;99.90
4701;DHT22;8724;51.272;6.554;2023-09-07T13:50:51;26.90;99.90
4701;DHT22;8724;51.272;6.554;2023-09-07T13:53:19;27.00;99.90
4701;DHT22;8724;51.272;6.554;2023-09-07T13:55:47;27.00;99.90
4701;DHT22;8724;51.272;6.554;2023-09-07T13:58:16;27.10;99.90
4701;DHT22;8724;51.272;6.554;2023-09-07T14:00:44;27.10;99.90
4701;DHT22;8724;51.272;6.554;2023-09-07T14:03:15;27.10;99.90
4701;DHT22;8724;51.272;6.554;2023-09-07T14:05:43;27.10;99.90
4701;DHT22;8724;51.272;6.554;2023-09-07T14:08:11;27.20;99.90
4701;DHT22;8724;51.272;6.554;2023-09-07T14:10:39;27.20;99.90
4701;DHT22;8724;51.272;6.554;2023-09-07T14:13:07;27.20;99.90
4701;DHT22;8724;51.272;6.554;2023-09-07T14:15:36;27.30;99.90
4701;DHT22;8724;51.272;6.554;2023-09-07T14:18:04;27.30;99.90
4701;DHT22;8724;51.272;6.554;2023-09-07T14:20:34;27.40;99.90
4701;DHT22;8724;51.272;6.554;2023-09-07T14:23:02;27.40;99.90
4701;DHT22;8724;51.272;6.554;2023-09-07T14:25:31;27.40;99.90
4701;DHT22;8724;51.272;6.554;2023-09-07T14:27:59;27.40;99.90
4701;DHT22;8724;51.272;6.554;2023-09-07T14:30:27;27.50;99.90
4701;DHT22;8724;51.272;6.554;2023-09-07T14:32:55;27.60;99.90
4701;DHT22;8724;51.272;6.554;2023-09-07T14:35:24;27.60;99.90
4701;DHT22;8724;51.272;6.554;2023-09-07T14:37:53;27.60;99.90
4701;DHT22;8724;51.272;6.554;2023-09-07T14:40:21;27.70;99.90
4701;DHT22;8724;51.272;6.554;2023-09-07T14:42:50;27.80;99.90
4701;DHT22;8724;51.272;6.554;2023-09-07T14:45:20;27.80;99.90
4701;DHT22;8724;51.272;6.554;2023-09-07T14:47:48;27.80;99.90
4701;DHT22;8724;51.272;6.554;2023-09-07T14:50:16;27.90;99.90
4701;DHT22;8724;51.272;6.554;2023-09-07T14:52:45;27.90;99.90
4701;DHT22;8724;51.272;6.554;2023-09-07T14:55:15;28.00;99.90
4701;DHT22;8724;51.272;6.554;2023-09-07T14:57:44;28.00;99.90
4701;DHT22;8724;51.272;6.554;2023-09-07T15:00:12;28.00;99.90
4701;DHT22;8724;51.272;6.554;2023-09-07T15:02:40;28.10;99.90
4701;DHT22;8724;51.272;6.554;2023-09-07T15:05:09;28.20;99.90
4701;DHT22;8724;51.272;6.554;2023-09-07T15:07:37;28.20;99.90
4701;DHT22;8724;51.272;6.554;2023-09-07T15:10:06;28.20;99.90
4701;DHT22;8724;51.272;6.554;2023-09-07T15:12:36;28.20;99.90
4701;DHT22;8724;51.272;6.554;2023-09-07T15:15:05;28.30;99.90
4701;DHT22;8724;51.272;6.554;2023-09-07T15:17:38;28.40;99.90
4701;DHT22;8724;51.272;6.554;2023-09-07T15:20:07;28.40;99.90
4701;DHT22;8724;51.272;6.554;2023-09-07T15:22:36;28.50;99.90
4701;DHT22;8724;51.272;6.554;2023-09-07T15:25:04;28.50;99.90
4701;DHT22;8724;51.272;6.554;2023-09-07T15:27:33;28.50;99.90
4701;DHT22;8724;51.272;6.554;2023-09-07T15:30:03;28.60;99.90
4701;DHT22;8724;51.272;6.554;2023-09-07T15:32:31;28.60;99.90
4701;DHT22;8724;51.272;6.554;2023-09-07T15:35:00;28.60;99.90
4701;DHT22;8724;51.272;6.554;2023-09-07T15:37:28;28.70;99.90
4701;DHT22;8724;51.272;6.554;2023-09-07T15:39:56;28.70;99.90
4701;DHT22;8724;51.272;6.554;2023-09-07T15:42:24;28.70;99.90
4701;DHT22;8724;51.272;6.554;2023-09-07T15:44:53;28.80;99.90
4701;DHT22;8724;51.272;6.554;2023-09-07T15:47:22;28.90;99.90
4701;DHT22;8724;51.272;6.554;2023-09-07T15:49:51;28.90;99.90
4701;DHT22;8724;51.272;6.554;2023-09-07T15:52:20;28.90;99.90
4701;DHT22;8724;51.272;6.554;2023-09-07T15:54:48;29.00;99.90
4701;DHT22;8724;51.272;6.554;2023-09-07T15:57:17;29.00;99.90
4701;DHT22;8724;51.272;6.554;2023-09-07T15:59:46;29.00;99.90
4701;DHT22;8724;51.272;6.554;2023-09-07T16:02:14;29.10;99.90
4701;DHT22;8724;51.272;6.554;2023-09-07T16:04:43;29.10;99.90
4701;DHT22;8724;51.272;6.554;2023-09-07T16:07:11;29.20;99.90
4701;DHT22;8724;51.272;6.554;2023-09-07T16:09:40;29.20;99.90
4701;DHT22;8724;51.272;6.554;2023-09-07T16:12:08;29.30;99.90